createdAt,value
2018-08-28T00:00:46.124Z,83.07
2018-08-28T00:01:46.351Z,82.78
2018-08-28T00:02:46.630Z,82.87
2018-08-28T00:03:46.813Z,82.45
2018-08-28T00:04:47.039Z,82.35
2018-08-28T00:05:47.271Z,83.22
2018-08-28T00:06:47.498Z,82.35
2018-08-28T00:07:47.733Z,82.64
2018-08-28T00:08:47.958Z,82.64
2018-08-28T00:09:48.195Z,83.22
2018-08-28T00:10:48.419Z,83.80
2018-08-28T00:11:48.647Z,83.41
2018-08-28T00:12:48.882Z,83.70
2018-08-28T00:13:49.104Z,83.70
2018-08-28T00:14:49.329Z,83.89
2018-08-28T00:15:49.564Z,84.37
2018-08-28T00:16:49.782Z,85.14
2018-08-28T00:17:50.008Z,85.24
2018-08-28T00:18:50.233Z,85.14
2018-08-28T00:19:50.464Z,86.38
2018-08-28T00:20:50.688Z,88.88
2018-08-28T00:21:50.917Z,88.79
2018-08-28T00:22:51.151Z,88.17
2018-08-28T00:23:51.375Z,88.07
2018-08-28T00:24:51.608Z,87.88
2018-08-28T00:25:51.845Z,87.92
2018-08-28T00:26:52.066Z,87.73
2018-08-28T00:27:52.298Z,87.63
2018-08-28T00:28:52.527Z,87.25
2018-08-28T00:29:52.760Z,87.54
2018-08-28T00:30:52.985Z,87.82
2018-08-28T00:31:53.213Z,87.73
2018-08-28T00:32:53.437Z,87.49
2018-08-28T00:33:53.662Z,87.49
2018-08-28T00:34:53.893Z,86.54
2018-08-28T00:35:54.125Z,87.40
2018-08-28T00:36:54.347Z,87.40
2018-08-28T00:37:54.574Z,87.68
2018-08-28T00:38:54.808Z,87.68
2018-08-28T00:39:55.039Z,87.68
2018-08-28T00:40:55.264Z,87.30
2018-08-28T00:41:55.492Z,87.68
2018-08-28T00:42:55.723Z,87.21
2018-08-28T00:43:55.961Z,86.82
2018-08-28T00:44:56.177Z,86.54
2018-08-28T00:45:56.406Z,87.40
2018-08-28T00:46:56.640Z,87.40
2018-08-28T00:47:56.869Z,86.82
2018-08-28T00:48:57.099Z,86.82
2018-08-28T00:49:57.329Z,86.05
2018-08-28T00:50:57.558Z,86.05
2018-08-28T00:51:57.788Z,86.15
2018-08-28T00:52:58.019Z,85.58
2018-08-28T00:53:58.242Z,85.10
2018-08-28T00:54:58.468Z,84.33
2018-08-28T00:55:58.696Z,83.65
2018-08-28T00:56:58.921Z,83.27
2018-08-28T00:57:59.149Z,82.60
2018-08-28T00:58:59.378Z,82.98
2018-08-28T00:59:59.609Z,82.98
2018-08-28T01:00:59.833Z,82.70
2018-08-28T01:02:00.062Z,82.98
2018-08-28T01:03:00.291Z,82.98
2018-08-28T01:04:00.518Z,84.00
2018-08-28T01:05:00.745Z,83.75
2018-08-28T01:06:00.975Z,83.94
2018-08-28T01:07:01.207Z,83.37
2018-08-28T01:08:01.439Z,83.14
2018-08-28T01:09:01.672Z,82.89
2018-08-28T01:10:01.897Z,82.98
2018-08-28T01:11:02.123Z,82.56
2018-08-28T01:12:02.378Z,82.51
2018-08-28T01:13:02.581Z,83.14
2018-08-28T01:14:02.808Z,83.81
2018-08-28T01:15:03.038Z,83.52
2018-08-28T01:16:03.266Z,83.52
2018-08-28T01:17:03.491Z,83.71
2018-08-28T01:18:03.715Z,83.71
2018-08-28T01:19:03.949Z,84.58
2018-08-28T01:20:04.175Z,84.00
2018-08-28T01:21:04.411Z,84.28
2018-08-28T01:22:04.635Z,84.38
2018-08-28T01:23:04.857Z,84.48
2018-08-28T01:24:05.089Z,84.38
2018-08-28T01:25:05.326Z,84.77
2018-08-28T01:26:05.545Z,84.48
2018-08-28T01:27:05.772Z,85.44
2018-08-28T01:28:05.999Z,85.72
2018-08-28T01:29:06.230Z,85.63
2018-08-28T01:30:06.452Z,86.78
2018-08-28T01:31:06.679Z,86.40
2018-08-28T01:32:06.905Z,86.49
2018-08-28T01:33:07.133Z,86.97
2018-08-28T01:34:07.377Z,87.55
2018-08-28T01:35:07.585Z,87.35
2018-08-28T01:36:07.818Z,87.45
2018-08-28T01:37:08.081Z,87.64
2018-08-28T01:38:08.277Z,87.26
2018-08-28T01:39:08.503Z,87.45
2018-08-28T01:40:08.728Z,86.49
2018-08-28T01:41:08.956Z,86.58
2018-08-28T01:42:16.973Z,86.40
2018-08-28T01:43:09.422Z,86.30
2018-08-28T01:44:17.452Z,86.78
2018-08-28T01:45:09.916Z,86.58
2018-08-28T01:46:10.121Z,86.40
2018-08-28T01:47:10.354Z,86.30
2018-08-28T01:48:10.583Z,86.58
2018-08-28T01:49:10.811Z,86.49
2018-08-28T01:50:11.039Z,86.21
2018-08-28T01:51:11.274Z,86.01
2018-08-28T01:52:11.490Z,86.30
2018-08-28T01:53:11.713Z,86.68
2018-08-28T01:54:11.941Z,86.21
2018-08-28T01:55:12.170Z,86.40
2018-08-28T01:56:12.399Z,86.40
2018-08-28T01:57:12.629Z,86.21
2018-08-28T01:58:12.855Z,86.58
2018-08-28T01:59:13.083Z,86.58
2018-08-28T02:00:13.312Z,86.58
2018-08-28T02:01:13.550Z,85.05
2018-08-28T02:02:13.769Z,85.15
2018-08-28T02:03:14.011Z,84.67
2018-08-28T02:04:14.243Z,85.05
2018-08-28T02:05:14.457Z,84.86
2018-08-28T02:06:14.684Z,84.58
2018-08-28T02:07:14.909Z,84.58
2018-08-28T02:08:15.140Z,84.67
2018-08-28T02:09:15.368Z,84.95
2018-08-28T02:10:15.603Z,84.28
2018-08-28T02:11:15.823Z,84.95
2018-08-28T02:12:16.053Z,84.67
2018-08-28T02:13:16.377Z,84.86
2018-08-28T02:14:16.511Z,84.58
2018-08-28T02:15:16.738Z,86.01
2018-08-28T02:16:16.969Z,86.01
2018-08-28T02:17:17.197Z,86.11
2018-08-28T02:18:17.427Z,86.21
2018-08-28T02:19:17.657Z,85.63
2018-08-28T02:20:17.885Z,85.44
2018-08-28T02:21:18.116Z,85.82
2018-08-28T02:22:18.343Z,85.63
2018-08-28T02:23:18.570Z,85.97
2018-08-28T02:24:18.802Z,85.82
2018-08-28T02:25:19.031Z,85.53
2018-08-28T02:26:19.259Z,86.21
2018-08-28T02:27:19.483Z,85.72
2018-08-28T02:28:19.712Z,85.78
2018-08-28T02:29:19.940Z,85.68
2018-08-28T02:30:20.172Z,86.16
2018-08-28T02:31:20.401Z,85.63
2018-08-28T02:32:20.630Z,85.44
2018-08-28T02:33:20.860Z,86.25
2018-08-28T02:34:21.085Z,86.54
2018-08-28T02:35:21.312Z,86.54
2018-08-28T02:36:21.547Z,86.45
2018-08-28T02:37:21.780Z,85.78
2018-08-28T02:38:22.004Z,85.39
2018-08-28T02:39:22.234Z,85.58
2018-08-28T02:40:22.461Z,85.58
2018-08-28T02:41:22.696Z,85.39
2018-08-28T02:42:22.919Z,85.49
2018-08-28T02:43:23.149Z,85.82
2018-08-28T02:44:23.376Z,85.05
2018-08-28T02:45:23.608Z,84.95
2018-08-28T02:46:23.836Z,85.34
2018-08-28T02:47:24.071Z,85.25
2018-08-28T02:48:24.295Z,84.58
2018-08-28T02:49:24.526Z,84.38
2018-08-28T02:50:24.755Z,85.21
2018-08-28T02:51:26.786Z,85.05
2018-08-28T02:52:25.265Z,84.86
2018-08-28T02:53:25.497Z,85.15
2018-08-28T02:54:25.742Z,84.95
2018-08-28T02:55:25.966Z,84.48
2018-08-28T02:56:26.187Z,84.77
2018-08-28T02:57:26.416Z,84.67
2018-08-28T02:58:26.652Z,84.58
2018-08-28T02:59:26.872Z,85.05
2018-08-28T03:00:27.100Z,84.82
2018-08-28T03:01:27.332Z,85.01
2018-08-28T03:02:27.557Z,85.97
2018-08-28T03:03:27.809Z,86.16
2018-08-28T03:04:28.015Z,86.54
2018-08-28T03:05:28.247Z,86.60
2018-08-28T03:06:28.483Z,86.54
2018-08-28T03:07:28.699Z,86.54
2018-08-28T03:08:28.930Z,86.64
2018-08-28T03:09:29.165Z,86.64
2018-08-28T03:10:29.387Z,86.74
2018-08-28T03:11:29.620Z,86.41
2018-08-28T03:12:29.851Z,86.60
2018-08-28T03:13:30.093Z,86.69
2018-08-28T03:14:30.306Z,86.50
2018-08-28T03:15:30.584Z,86.50
2018-08-28T03:16:30.760Z,86.50
2018-08-28T03:17:30.989Z,86.12
2018-08-28T03:18:31.221Z,86.41
2018-08-28T03:19:31.447Z,87.08
2018-08-28T03:20:31.671Z,87.55
2018-08-28T03:21:31.905Z,87.65
2018-08-28T03:22:32.128Z,87.13
2018-08-28T03:23:32.363Z,87.41
2018-08-28T03:24:32.584Z,87.23
2018-08-28T03:25:32.814Z,87.90
2018-08-28T03:26:33.044Z,87.80
2018-08-28T03:27:33.270Z,87.99
2018-08-28T03:28:33.497Z,87.99
2018-08-28T03:29:33.744Z,87.90
2018-08-28T03:30:33.951Z,87.90
2018-08-28T03:31:34.182Z,87.95
2018-08-28T03:32:34.412Z,88.04
2018-08-28T03:33:34.622Z,88.81
2018-08-28T03:34:34.854Z,88.71
2018-08-28T03:35:35.072Z,88.43
2018-08-28T03:36:35.305Z,89.19
2018-08-28T03:37:35.538Z,88.90
2018-08-28T03:38:35.762Z,89.38
2018-08-28T03:39:35.991Z,89.09
2018-08-28T03:40:36.218Z,89.38
2018-08-28T03:41:36.443Z,89.19
2018-08-28T03:42:36.671Z,89.48
2018-08-28T03:43:36.898Z,89.86
2018-08-28T03:44:37.132Z,90.05
2018-08-28T03:45:37.353Z,89.91
2018-08-28T03:46:37.592Z,89.72
2018-08-28T03:47:37.812Z,90.48
2018-08-28T03:48:38.032Z,90.39
2018-08-28T03:49:38.267Z,90.10
2018-08-28T03:50:38.496Z,90.10
2018-08-28T03:51:38.722Z,90.10
2018-08-28T03:52:38.951Z,90.96
2018-08-28T03:53:39.183Z,90.96
2018-08-28T03:54:39.412Z,91.25
2018-08-28T03:55:39.642Z,91.16
2018-08-28T03:56:39.865Z,91.25
2018-08-28T03:57:40.102Z,91.25
2018-08-28T03:58:40.344Z,91.16
2018-08-28T03:59:40.560Z,91.11
2018-08-28T04:00:40.791Z,91.11
2018-08-28T04:01:41.018Z,91.02
2018-08-28T04:02:41.245Z,91.02
2018-08-28T04:03:41.541Z,90.82
2018-08-28T04:04:41.700Z,90.82
2018-08-28T04:05:41.932Z,91.39
2018-08-28T04:06:42.161Z,91.49
2018-08-28T04:07:42.388Z,91.97
2018-08-28T04:08:42.622Z,91.49
2018-08-28T04:09:42.845Z,91.11
2018-08-28T04:10:43.073Z,91.30
2018-08-28T04:11:43.301Z,92.07
2018-08-28T04:12:43.524Z,91.78
2018-08-28T04:13:43.753Z,91.88
2018-08-28T04:14:43.988Z,91.39
2018-08-28T04:15:44.215Z,92.74
2018-08-28T04:16:44.430Z,92.45
2018-08-28T04:17:44.664Z,92.16
2018-08-28T04:18:44.905Z,92.69
2018-08-28T04:19:45.128Z,93.26
2018-08-28T04:20:45.344Z,93.26
2018-08-28T04:21:45.572Z,93.45
2018-08-28T04:22:45.801Z,93.07
2018-08-28T04:23:46.038Z,93.07
2018-08-28T04:24:46.304Z,92.88
2018-08-28T04:25:46.492Z,92.88
2018-08-28T04:26:46.724Z,92.97
2018-08-28T04:27:46.951Z,92.69
2018-08-28T04:28:47.176Z,92.30
2018-08-28T04:29:47.407Z,92.30
2018-08-28T04:30:47.704Z,92.79
2018-08-28T04:31:47.864Z,92.69
2018-08-28T04:32:48.096Z,92.30
2018-08-28T04:33:48.328Z,93.07
2018-08-28T04:34:48.550Z,92.79
2018-08-28T04:35:48.780Z,92.97
2018-08-28T04:36:49.008Z,92.97
2018-08-28T04:37:49.236Z,93.45
2018-08-28T04:38:49.463Z,93.65
2018-08-28T04:39:49.687Z,93.36
2018-08-28T04:40:49.914Z,94.60
2018-08-28T04:41:50.215Z,95.36
2018-08-28T04:42:50.370Z,95.36
2018-08-28T04:43:50.598Z,95.07
2018-08-28T04:44:50.831Z,94.41
2018-08-28T04:45:51.053Z,94.22
2018-08-28T04:46:51.282Z,93.74
2018-08-28T04:47:51.516Z,93.45
2018-08-28T04:48:51.797Z,93.65
2018-08-28T04:49:51.964Z,93.45
2018-08-28T04:50:52.189Z,92.88
2018-08-28T04:51:52.418Z,92.59
2018-08-28T04:52:52.651Z,92.50
2018-08-28T04:53:52.872Z,92.59
2018-08-28T04:54:53.190Z,92.40
2018-08-28T04:55:53.326Z,92.40
2018-08-28T04:56:53.555Z,92.69
2018-08-28T04:57:53.784Z,91.93
2018-08-28T04:58:54.010Z,92.11
2018-08-28T04:59:54.238Z,91.88
2018-08-28T05:00:54.468Z,91.78
2018-08-28T05:01:54.694Z,91.97
2018-08-28T05:02:54.923Z,91.59
2018-08-28T05:03:55.157Z,91.59
2018-08-28T05:04:55.386Z,91.49
2018-08-28T05:05:55.605Z,91.59
2018-08-28T05:06:55.831Z,91.78
2018-08-28T05:07:56.063Z,91.30
2018-08-28T05:08:56.292Z,90.92
2018-08-28T05:09:56.520Z,91.25
2018-08-28T05:10:56.758Z,90.67
2018-08-28T05:11:57.056Z,89.86
2018-08-28T05:12:57.203Z,89.00
2018-08-28T05:13:57.432Z,87.80
2018-08-28T05:14:57.660Z,87.32
2018-08-28T05:15:57.930Z,86.46
2018-08-28T05:16:58.115Z,86.21
2018-08-28T05:17:58.340Z,85.64
2018-08-28T05:18:58.568Z,85.06
2018-08-28T05:19:58.797Z,84.63
2018-08-28T05:20:59.029Z,84.49
2018-08-28T05:21:59.254Z,84.25
2018-08-28T05:22:59.484Z,83.76
2018-08-28T05:23:59.708Z,82.75
2018-08-28T05:24:59.949Z,82.37
2018-08-28T05:26:00.162Z,81.35
2018-08-28T05:27:00.385Z,80.68
2018-08-28T05:28:00.617Z,80.30
2018-08-28T05:29:00.846Z,79.53
2018-08-28T05:30:01.105Z,79.28
2018-08-28T05:31:01.303Z,79.09
2018-08-28T05:32:01.533Z,78.45
2018-08-28T05:33:01.761Z,77.78
2018-08-28T05:34:01.993Z,77.21
2018-08-28T05:35:02.221Z,77.59
2018-08-28T05:36:02.451Z,76.82
2018-08-28T05:37:02.683Z,77.56
2018-08-28T05:38:02.938Z,77.46
2018-08-28T05:39:03.146Z,78.80
2018-08-28T05:40:03.376Z,78.80
2018-08-28T05:41:03.604Z,78.32
2018-08-28T05:42:03.846Z,78.55
2018-08-28T05:43:04.068Z,78.45
2018-08-28T05:44:04.284Z,77.44
2018-08-28T05:45:04.511Z,76.32
2018-08-28T05:46:04.719Z,76.04
2018-08-28T05:47:04.965Z,75.31
2018-08-28T05:48:05.198Z,74.25
2018-08-28T05:49:05.420Z,74.25
2018-08-28T05:50:05.653Z,73.13
2018-08-28T05:51:05.878Z,72.84
2018-08-28T05:52:06.107Z,72.74
2018-08-28T05:53:06.380Z,72.45
2018-08-28T05:54:06.559Z,72.84
2018-08-28T05:55:06.800Z,72.55
2018-08-28T05:56:07.064Z,72.32
2018-08-28T05:57:07.258Z,73.42
2018-08-28T05:58:07.483Z,72.84
2018-08-28T05:59:07.734Z,72.65
2018-08-28T06:00:07.949Z,72.36
2018-08-28T06:01:08.175Z,73.07
2018-08-28T06:02:08.410Z,71.59
2018-08-28T06:03:08.725Z,72.01
2018-08-28T06:04:08.873Z,72.07
2018-08-28T06:05:09.110Z,72.74
2018-08-28T06:06:09.343Z,72.59
2018-08-28T06:07:09.575Z,70.60
2018-08-28T06:08:09.801Z,70.02
2018-08-28T06:09:10.034Z,69.93
2018-08-28T06:10:10.261Z,69.73
2018-08-28T06:11:10.492Z,69.87
2018-08-28T06:12:10.722Z,67.94
2018-08-28T06:13:10.958Z,68.96
2018-08-28T06:14:11.198Z,69.09
2018-08-28T06:15:11.427Z,66.04
2018-08-28T06:16:11.651Z,63.95
2018-08-28T06:17:11.886Z,63.21
2018-08-28T06:18:12.121Z,62.63
2018-08-28T06:19:12.350Z,62.63
2018-08-28T06:20:12.586Z,61.67
2018-08-28T06:21:12.817Z,60.73
2018-08-28T06:22:13.051Z,60.25
2018-08-28T06:23:13.338Z,59.77
2018-08-28T06:24:13.517Z,59.86
2018-08-28T06:25:13.759Z,59.86
2018-08-28T06:26:13.997Z,59.86
2018-08-28T06:27:14.224Z,59.58
2018-08-28T06:28:14.461Z,59.48
2018-08-28T06:29:14.686Z,59.41
2018-08-28T06:30:14.917Z,59.19
2018-08-28T06:31:15.153Z,59.19
2018-08-28T06:32:15.396Z,59.48
2018-08-28T06:33:15.614Z,59.38
2018-08-28T06:34:15.847Z,59.09
2018-08-28T06:35:16.077Z,58.80
2018-08-28T06:36:16.309Z,59.38
2018-08-28T06:37:16.564Z,59.77
2018-08-28T06:38:16.785Z,59.48
2018-08-28T06:39:17.012Z,59.86
2018-08-28T06:40:17.241Z,59.58
2018-08-28T06:41:17.481Z,59.58
2018-08-28T06:42:17.717Z,59.67
2018-08-28T06:43:17.947Z,59.74
2018-08-28T06:44:18.180Z,60.61
2018-08-28T06:45:18.414Z,61.38
2018-08-28T06:46:18.647Z,61.06
2018-08-28T06:47:18.880Z,62.12
2018-08-28T06:48:19.109Z,62.41
2018-08-28T06:49:19.358Z,62.22
2018-08-28T06:50:19.583Z,63.06
2018-08-28T06:51:19.816Z,62.96
2018-08-28T06:52:20.044Z,63.44
2018-08-28T06:53:20.293Z,63.70
2018-08-28T06:54:20.511Z,64.56
2018-08-28T06:55:20.765Z,64.47
2018-08-28T06:56:20.980Z,64.66
2018-08-28T06:57:21.213Z,65.24
2018-08-28T06:58:21.443Z,65.30
2018-08-28T06:59:21.679Z,66.94
2018-08-28T07:00:21.929Z,66.75
2018-08-28T07:01:22.141Z,66.07
2018-08-28T07:02:22.436Z,67.52
2018-08-28T07:03:22.612Z,67.61
2018-08-28T07:04:22.852Z,67.81
2018-08-28T07:05:23.076Z,67.81
2018-08-28T07:06:23.304Z,67.81
2018-08-28T07:07:23.537Z,67.42
2018-08-28T07:08:23.773Z,67.81
2018-08-28T07:09:24.007Z,68.48
2018-08-28T07:10:24.337Z,68.96
2018-08-28T07:11:24.473Z,70.09
2018-08-28T07:12:24.706Z,70.24
2018-08-28T07:13:24.941Z,71.11
2018-08-28T07:14:25.174Z,72.45
2018-08-28T07:15:25.407Z,71.11
2018-08-28T07:16:25.651Z,71.01
2018-08-28T07:17:25.884Z,70.37
2018-08-28T07:18:26.119Z,71.01
2018-08-28T07:19:26.351Z,71.88
2018-08-28T07:20:26.590Z,71.14
2018-08-28T07:21:26.824Z,70.47
2018-08-28T07:22:27.053Z,70.66
2018-08-28T07:23:27.280Z,71.43
2018-08-28T07:24:27.518Z,70.50
2018-08-28T07:25:27.769Z,69.93
2018-08-28T07:26:27.990Z,70.56
2018-08-28T07:27:28.212Z,69.45
2018-08-28T07:28:28.449Z,69.93
2018-08-28T07:29:28.664Z,68.96
2018-08-28T07:30:28.894Z,68.32
2018-08-28T07:31:29.145Z,67.94
2018-08-28T07:32:29.356Z,67.84
2018-08-28T07:33:29.589Z,68.80
2018-08-28T07:34:29.828Z,68.23
2018-08-28T07:35:30.052Z,68.42
2018-08-28T07:36:30.285Z,67.84
2018-08-28T07:37:30.536Z,68.07
2018-08-28T07:38:30.745Z,68.42
2018-08-28T07:39:30.984Z,68.71
2018-08-28T07:40:31.208Z,68.23
2018-08-28T07:41:31.439Z,66.72
2018-08-28T07:42:31.667Z,65.95
2018-08-28T07:43:31.897Z,65.17
2018-08-28T07:44:32.150Z,65.37
2018-08-28T07:45:32.392Z,65.56
2018-08-28T07:46:32.752Z,65.37
2018-08-28T07:47:32.805Z,65.56
2018-08-28T07:48:33.038Z,64.59
2018-08-28T07:49:33.269Z,64.50
2018-08-28T07:50:33.497Z,64.79
2018-08-28T07:51:33.732Z,64.50
2018-08-28T07:52:33.966Z,66.01
2018-08-28T07:53:34.198Z,66.11
2018-08-28T07:54:34.440Z,66.49
2018-08-28T07:55:34.661Z,66.11
2018-08-28T07:56:34.894Z,66.20
2018-08-28T07:57:35.125Z,66.39
2018-08-28T07:58:35.354Z,66.97
2018-08-28T07:59:35.598Z,66.59
2018-08-28T08:00:35.811Z,66.59
2018-08-28T08:01:36.036Z,65.95
2018-08-28T08:02:36.271Z,65.56
2018-08-28T08:03:36.509Z,64.53
2018-08-28T08:04:36.750Z,64.63
2018-08-28T08:05:36.974Z,64.43
2018-08-28T08:06:37.206Z,63.67
2018-08-28T08:07:37.438Z,63.47
2018-08-28T08:08:37.668Z,62.96
2018-08-28T08:09:37.906Z,63.34
2018-08-28T08:10:38.244Z,63.63
2018-08-28T08:11:38.357Z,63.85
2018-08-28T08:12:38.602Z,63.63
2018-08-28T08:13:38.829Z,63.67
2018-08-28T08:14:39.061Z,63.28
2018-08-28T08:15:39.308Z,63.09
2018-08-28T08:16:39.518Z,63.28
2018-08-28T08:17:39.763Z,63.28
2018-08-28T08:18:39.996Z,63.63
2018-08-28T08:19:40.234Z,64.56
2018-08-28T08:20:40.471Z,64.47
2018-08-28T08:21:40.699Z,65.14
2018-08-28T08:22:40.936Z,64.56
2018-08-28T08:23:41.164Z,65.08
2018-08-28T08:24:41.397Z,64.50
2018-08-28T08:25:41.633Z,64.34
2018-08-28T08:26:41.865Z,64.53
2018-08-28T08:27:42.115Z,63.50
2018-08-28T08:28:42.334Z,63.28
2018-08-28T08:29:42.559Z,62.34
2018-08-28T08:30:42.801Z,62.92
2018-08-28T08:31:43.028Z,63.21
2018-08-28T08:32:43.265Z,63.21
2018-08-28T08:33:43.496Z,61.57
2018-08-28T08:34:43.726Z,61.77
2018-08-28T08:35:43.957Z,61.60
2018-08-28T08:36:44.189Z,60.83
2018-08-28T08:37:44.425Z,61.12
2018-08-28T08:38:44.655Z,61.22
2018-08-28T08:39:44.896Z,61.31
2018-08-28T08:40:45.120Z,60.73
2018-08-28T08:41:45.397Z,60.44
2018-08-28T08:42:45.581Z,60.73
2018-08-28T08:43:45.817Z,60.54
2018-08-28T08:44:46.047Z,60.83
2018-08-28T08:45:46.278Z,60.54
2018-08-28T08:46:46.513Z,60.54
2018-08-28T08:47:46.747Z,60.76
2018-08-28T08:48:46.973Z,59.31
2018-08-28T08:49:54.942Z,59.09
2018-08-28T08:50:47.463Z,58.61
2018-08-28T08:51:47.690Z,59.00
2018-08-28T08:52:47.933Z,60.03
2018-08-28T08:53:48.169Z,58.87
2018-08-28T08:54:48.446Z,59.64
2018-08-28T08:55:48.631Z,59.61
2018-08-28T08:56:48.863Z,59.52
2018-08-28T08:57:49.317Z,59.35
2018-08-28T08:58:49.318Z,59.16
2018-08-28T08:59:49.558Z,60.48
2018-08-28T09:00:49.794Z,60.86
2018-08-28T09:01:50.023Z,60.68
2018-08-28T09:02:50.254Z,60.58
2018-08-28T09:03:50.491Z,61.83
2018-08-28T09:04:50.720Z,60.96
2018-08-28T09:05:50.961Z,61.16
2018-08-28T09:06:51.189Z,61.16
2018-08-28T09:07:51.419Z,61.16
2018-08-28T09:08:51.655Z,62.02
2018-08-28T09:09:51.889Z,60.96
2018-08-28T09:10:52.120Z,61.06
2018-08-28T09:11:52.356Z,60.68
2018-08-28T09:12:52.568Z,60.51
2018-08-28T09:13:52.802Z,59.55
2018-08-28T09:14:53.037Z,59.55
2018-08-28T09:15:53.276Z,59.25
2018-08-28T09:16:53.501Z,59.16
2018-08-28T09:17:53.733Z,58.42
2018-08-28T09:18:53.968Z,58.12
2018-08-28T09:19:54.199Z,58.22
2018-08-28T09:20:54.432Z,57.84
2018-08-28T09:21:54.668Z,57.84
2018-08-28T09:22:54.900Z,58.03
2018-08-28T09:23:55.130Z,57.93
2018-08-28T09:24:55.365Z,58.19
2018-08-28T09:25:55.596Z,57.71
2018-08-28T09:26:55.827Z,57.74
2018-08-28T09:27:56.053Z,57.26
2018-08-28T09:28:56.283Z,56.77
2018-08-28T09:29:56.516Z,56.13
2018-08-28T09:30:56.751Z,56.13
2018-08-28T09:31:56.982Z,55.19
2018-08-28T09:32:57.216Z,55.09
2018-08-28T09:33:57.456Z,54.99
2018-08-28T09:34:57.688Z,55.09
2018-08-28T09:35:57.921Z,54.63
2018-08-28T09:36:58.157Z,54.35
2018-08-28T09:37:58.394Z,53.38
2018-08-28T09:38:58.627Z,52.99
2018-08-28T09:39:58.863Z,52.99
2018-08-28T09:40:59.098Z,52.63
2018-08-28T09:41:59.329Z,52.80
2018-08-28T09:42:59.567Z,52.89
2018-08-28T09:43:59.861Z,52.61
2018-08-28T09:45:00.034Z,52.51
2018-08-28T09:46:00.269Z,52.41
2018-08-28T09:47:00.510Z,52.51
2018-08-28T09:48:00.779Z,52.09
2018-08-28T09:49:00.975Z,52.41
2018-08-28T09:50:01.215Z,52.99
2018-08-28T09:51:01.474Z,52.63
2018-08-28T09:52:01.679Z,52.34
2018-08-28T09:53:01.914Z,52.14
2018-08-28T09:54:02.148Z,51.66
2018-08-28T09:55:02.382Z,51.76
2018-08-28T09:56:02.621Z,51.76
2018-08-28T09:57:02.850Z,51.86
2018-08-28T09:58:03.199Z,51.95
2018-08-28T09:59:03.321Z,51.66
2018-08-28T10:00:03.559Z,51.40
2018-08-28T10:01:03.792Z,51.50
2018-08-28T10:02:04.027Z,51.30
2018-08-28T10:03:04.260Z,51.98
2018-08-28T10:04:04.495Z,51.10
2018-08-28T10:05:04.731Z,50.60
2018-08-28T10:06:04.965Z,50.79
2018-08-28T10:07:05.198Z,50.98
2018-08-28T10:08:05.425Z,50.21
2018-08-28T10:09:05.671Z,50.31
2018-08-28T10:10:05.919Z,50.89
2018-08-28T10:11:06.273Z,51.47
2018-08-28T10:12:06.362Z,52.14
2018-08-28T10:13:06.597Z,52.61
2018-08-28T10:14:06.834Z,53.28
2018-08-28T10:15:07.066Z,52.63
2018-08-28T10:16:07.299Z,51.37
2018-08-28T10:17:07.532Z,50.79
2018-08-28T10:18:07.770Z,51.28
2018-08-28T10:19:08.051Z,50.79
2018-08-28T10:20:08.235Z,50.40
2018-08-28T10:21:08.466Z,50.98
2018-08-28T10:22:08.699Z,50.70
2018-08-28T10:23:08.935Z,50.96
2018-08-28T10:24:09.170Z,50.86
2018-08-28T10:25:09.402Z,52.09
2018-08-28T10:26:09.640Z,51.61
2018-08-28T10:27:09.874Z,52.29
2018-08-28T10:28:10.112Z,51.81
2018-08-28T10:29:10.347Z,52.29
2018-08-28T10:30:10.609Z,52.55
2018-08-28T10:31:10.819Z,52.94
2018-08-28T10:32:11.060Z,52.48
2018-08-28T10:33:11.285Z,52.48
2018-08-28T10:34:11.522Z,52.97
2018-08-28T10:35:11.757Z,51.83
2018-08-28T10:36:11.993Z,52.12
2018-08-28T10:37:12.231Z,51.35
2018-08-28T10:38:12.588Z,50.79
2018-08-28T10:39:12.614Z,49.82
2018-08-28T10:40:12.848Z,49.63
2018-08-28T10:41:13.083Z,48.76
2018-08-28T10:42:13.319Z,49.07
2018-08-28T10:43:13.556Z,48.30
2018-08-28T10:44:13.790Z,48.01
2018-08-28T10:45:14.024Z,48.69
2018-08-28T10:46:14.310Z,47.33
2018-08-28T10:47:14.493Z,48.01
2018-08-28T10:48:14.728Z,48.39
2018-08-28T10:49:14.962Z,48.11
2018-08-28T10:50:15.199Z,48.39
2018-08-28T10:51:15.429Z,48.30
2018-08-28T10:52:15.665Z,47.41
2018-08-28T10:53:15.898Z,47.79
2018-08-28T10:54:16.134Z,48.37
2018-08-28T10:55:16.370Z,47.79
2018-08-28T10:56:16.604Z,47.99
2018-08-28T10:57:16.839Z,47.62
2018-08-28T10:58:17.074Z,48.20
2018-08-28T10:59:17.307Z,47.84
2018-08-28T11:00:17.548Z,47.45
2018-08-28T11:01:17.778Z,47.36
2018-08-28T11:02:18.015Z,47.45
2018-08-28T11:03:18.250Z,47.06
2018-08-28T11:04:18.490Z,46.87
2018-08-28T11:05:18.721Z,46.67
2018-08-28T11:06:18.953Z,46.29
2018-08-28T11:07:19.194Z,46.58
2018-08-28T11:08:19.429Z,47.45
2018-08-28T11:09:19.674Z,46.77
2018-08-28T11:10:19.898Z,46.87
2018-08-28T11:11:20.132Z,46.56
2018-08-28T11:12:20.368Z,46.66
2018-08-28T11:13:20.601Z,46.75
2018-08-28T11:14:20.836Z,46.75
2018-08-28T11:15:21.073Z,46.84
2018-08-28T11:16:21.307Z,46.17
2018-08-28T11:17:21.542Z,46.56
2018-08-28T11:18:21.774Z,47.02
2018-08-28T11:19:22.011Z,47.41
2018-08-28T11:20:22.245Z,47.38
2018-08-28T11:21:22.477Z,47.41
2018-08-28T11:22:22.748Z,47.99
2018-08-28T11:23:22.945Z,48.25
2018-08-28T11:24:23.179Z,48.06
2018-08-28T11:25:23.415Z,48.35
2018-08-28T11:26:23.650Z,48.06
2018-08-28T11:27:23.880Z,49.22
2018-08-28T11:28:24.147Z,48.74
2018-08-28T11:29:24.349Z,48.74
2018-08-28T11:30:24.582Z,48.93
2018-08-28T11:31:24.827Z,49.02
2018-08-28T11:32:25.058Z,48.83
2018-08-28T11:33:25.287Z,49.39
2018-08-28T11:34:25.523Z,49.58
2018-08-28T11:35:25.752Z,50.74
2018-08-28T11:36:25.988Z,49.87
2018-08-28T11:37:26.221Z,50.57
2018-08-28T11:38:26.504Z,49.41
2018-08-28T11:39:26.695Z,49.10
2018-08-28T11:40:26.926Z,48.90
2018-08-28T11:41:27.158Z,48.83
2018-08-28T11:42:27.386Z,49.32
2018-08-28T11:43:27.621Z,48.83
2018-08-28T11:44:27.856Z,49.41
2018-08-28T11:45:28.089Z,47.86
2018-08-28T11:46:28.320Z,48.25
2018-08-28T11:47:28.555Z,47.77
2018-08-28T11:48:28.791Z,47.89
2018-08-28T11:49:29.027Z,48.37
2018-08-28T11:50:29.263Z,48.35
2018-08-28T11:51:29.495Z,47.89
2018-08-28T11:52:29.741Z,48.06
2018-08-28T11:53:29.963Z,47.86
2018-08-28T11:54:30.197Z,47.96
2018-08-28T11:55:30.431Z,47.96
2018-08-28T11:56:30.666Z,47.67
2018-08-28T11:57:30.893Z,48.06
2018-08-28T11:58:31.131Z,48.35
2018-08-28T11:59:31.365Z,47.86
2018-08-28T12:00:31.599Z,47.96
2018-08-28T12:01:31.832Z,48.18
2018-08-28T12:02:32.072Z,47.58
2018-08-28T12:03:32.306Z,47.86
2018-08-28T12:04:32.538Z,47.50
2018-08-28T12:05:32.773Z,47.19
2018-08-28T12:06:33.058Z,48.37
2018-08-28T12:07:33.264Z,49.41
2018-08-28T12:08:33.474Z,47.99
2018-08-28T12:09:33.712Z,48.27
2018-08-28T12:10:33.943Z,47.89
2018-08-28T12:11:34.183Z,47.43
2018-08-28T12:12:34.421Z,46.56
2018-08-28T12:13:34.660Z,47.41
2018-08-28T12:14:34.890Z,47.21
2018-08-28T12:15:35.126Z,46.92
2018-08-28T12:16:35.363Z,46.73
2018-08-28T12:17:35.601Z,47.31
2018-08-28T12:18:35.836Z,47.41
2018-08-28T12:19:36.120Z,47.50
2018-08-28T12:20:36.322Z,48.08
2018-08-28T12:21:36.560Z,47.28
2018-08-28T12:22:36.804Z,47.28
2018-08-28T12:23:37.048Z,48.16
2018-08-28T12:24:37.287Z,47.77
2018-08-28T12:25:37.522Z,47.79
2018-08-28T12:26:37.779Z,47.50
2018-08-28T12:27:37.983Z,47.11
2018-08-28T12:28:38.217Z,47.41
2018-08-28T12:29:38.459Z,47.11
2018-08-28T12:30:38.678Z,46.83
2018-08-28T12:31:38.913Z,46.83
2018-08-28T12:32:39.152Z,47.21
2018-08-28T12:33:39.380Z,47.50
2018-08-28T12:34:39.611Z,47.04
2018-08-28T12:35:39.849Z,46.46
2018-08-28T12:36:40.127Z,46.26
2018-08-28T12:37:40.314Z,46.56
2018-08-28T12:38:40.551Z,46.75
2018-08-28T12:39:40.785Z,46.84
2018-08-28T12:40:41.021Z,46.56
2018-08-28T12:41:41.280Z,46.94
2018-08-28T12:42:41.515Z,46.97
2018-08-28T12:43:41.751Z,46.39
2018-08-28T12:44:41.987Z,46.00
2018-08-28T12:45:42.221Z,45.90
2018-08-28T12:46:42.455Z,44.74
2018-08-28T12:47:42.693Z,45.13
2018-08-28T12:48:42.929Z,45.30
2018-08-28T12:49:43.164Z,45.81
2018-08-28T12:50:43.396Z,45.61
2018-08-28T12:51:43.627Z,45.81
2018-08-28T12:52:43.871Z,45.81
2018-08-28T12:53:44.103Z,45.32
2018-08-28T12:54:44.398Z,44.74
2018-08-28T12:55:44.573Z,44.84